createdAt,value
2018-07-27T00:00:15.389Z,8.10
2018-07-27T00:05:12.356Z,8.85
2018-07-27T00:10:13.039Z,8.88
2018-07-27T00:15:09.931Z,8.25
2018-07-27T00:20:06.691Z,8.35
2018-07-27T00:25:03.919Z,8.68
2018-07-27T00:30:00.816Z,8.80
2018-07-27T00:34:57.996Z,9.25
2018-07-27T00:39:54.657Z,9.10
2018-07-27T00:44:51.566Z,9.03
2018-07-27T00:49:48.464Z,9.75
2018-07-27T00:54:45.193Z,10.65
2018-07-27T00:59:42.058Z,9.25
2018-07-27T01:04:38.794Z,8.85
2018-07-27T01:09:35.704Z,9.80
2018-07-27T01:14:32.387Z,9.43
2018-07-27T01:19:29.280Z,9.60
2018-07-27T01:24:25.961Z,9.75
2018-07-27T01:29:23.169Z,9.93
2018-07-27T01:34:19.896Z,9.73
2018-07-27T01:39:17.633Z,10.35
2018-07-27T01:44:14.327Z,10.28
2018-07-27T01:49:11.304Z,9.95
2018-07-27T01:54:08.053Z,10.80
2018-07-27T01:59:04.932Z,11.10
2018-07-27T02:04:02.307Z,9.98
2018-07-27T02:08:59.117Z,10.53
2018-07-27T02:13:56.103Z,10.75
2018-07-27T02:18:53.015Z,10.82
2018-07-27T02:23:49.731Z,11.10
2018-07-27T02:28:46.817Z,10.85
2018-07-27T02:33:43.787Z,11.38
2018-07-27T02:38:41.030Z,10.93
2018-07-27T02:43:37.642Z,11.43
2018-07-27T02:48:34.629Z,10.60
2018-07-27T02:53:31.399Z,11.33
2018-07-27T02:58:28.311Z,10.63
2018-07-27T03:03:25.060Z,11.70
2018-07-27T03:08:21.916Z,10.55
2018-07-27T03:13:18.670Z,11.50
2018-07-27T03:18:15.558Z,11.80
2018-07-27T03:23:12.315Z,12.90
2018-07-27T03:28:09.213Z,12.20
2018-07-27T03:33:05.962Z,11.83
2018-07-27T03:38:02.805Z,12.00
2018-07-27T03:42:59.533Z,12.37
2018-07-27T03:47:57.108Z,11.50
2018-07-27T03:52:53.841Z,11.40
2018-07-27T03:57:50.695Z,12.00
2018-07-27T04:02:47.361Z,10.87
2018-07-27T04:07:44.326Z,11.10
2018-07-27T04:12:40.994Z,11.40
2018-07-27T04:17:37.936Z,11.87
2018-07-27T04:22:34.657Z,11.67
2018-07-27T04:27:31.553Z,12.23
2018-07-27T04:32:28.293Z,12.67
2018-07-27T04:37:25.181Z,12.03
2018-07-27T04:42:21.647Z,11.97
2018-07-27T04:47:18.573Z,12.30
2018-07-27T04:52:15.360Z,11.60
2018-07-27T04:57:12.400Z,11.60
2018-07-27T05:02:09.306Z,11.55
2018-07-27T05:07:06.104Z,11.75
2018-07-27T05:12:03.128Z,10.88
2018-07-27T05:16:59.894Z,10.98
2018-07-27T05:21:56.796Z,9.75
2018-07-27T05:26:53.669Z,10.15
2018-07-27T05:31:50.410Z,10.03
2018-07-27T05:36:47.562Z,10.05
2018-07-27T05:41:44.276Z,9.65
2018-07-27T05:46:41.873Z,9.68
2018-07-27T05:51:38.647Z,9.43
2018-07-27T05:56:35.596Z,9.95
2018-07-27T06:01:32.854Z,9.05
2018-07-27T06:06:29.568Z,9.65
2018-07-27T06:11:26.519Z,8.68
2018-07-27T06:16:23.270Z,9.05
2018-07-27T06:21:20.192Z,8.35
2018-07-27T06:26:16.921Z,8.48
2018-07-27T06:31:13.837Z,7.37
2018-07-27T06:36:10.810Z,7.67
2018-07-27T06:41:07.885Z,6.72
2018-07-27T06:46:04.667Z,6.47
2018-07-27T06:51:01.580Z,7.53
2018-07-27T06:55:58.346Z,6.83
2018-07-27T07:00:55.182Z,6.40
2018-07-27T07:05:51.993Z,6.90
2018-07-27T07:10:48.895Z,7.17
2018-07-27T07:15:45.640Z,6.65
2018-07-27T07:20:42.841Z,7.08
2018-07-27T07:25:39.703Z,7.28
2018-07-27T07:30:36.369Z,7.03
2018-07-27T07:35:33.142Z,7.00
2018-07-27T07:40:30.606Z,6.55
2018-07-27T07:45:27.506Z,6.08
2018-07-27T07:50:24.293Z,6.10
2018-07-27T07:55:21.192Z,6.67
2018-07-27T08:00:17.929Z,6.53
2018-07-27T08:05:14.961Z,6.65
2018-07-27T08:10:11.677Z,7.00
2018-07-27T08:15:08.511Z,6.62
2018-07-27T08:20:05.264Z,6.83
2018-07-27T08:25:02.486Z,7.30
2018-07-27T08:29:59.154Z,6.47
2018-07-27T08:34:56.057Z,6.47
2018-07-27T08:39:52.759Z,5.92
2018-07-27T08:44:49.719Z,5.90
2018-07-27T08:49:46.400Z,5.70
2018-07-27T08:54:43.320Z,5.75
2018-07-27T08:59:40.189Z,4.90
2018-07-27T09:04:37.962Z,9.73
2018-07-27T09:09:34.948Z,4.65
2018-07-27T09:14:31.677Z,4.67
2018-07-27T09:19:28.499Z,4.22
2018-07-27T09:24:25.375Z,4.60
2018-07-27T09:29:22.169Z,4.62
2018-07-27T09:34:19.100Z,4.60
2018-07-27T09:39:15.797Z,3.92
2018-07-27T09:44:12.694Z,3.80
2018-07-27T09:49:10.220Z,3.65
2018-07-27T09:54:07.035Z,3.52
2018-07-27T09:59:04.048Z,3.47
2018-07-27T10:04:00.822Z,4.20
2018-07-27T10:08:57.744Z,3.58
2018-07-27T10:28:25.615Z,4.70
2018-07-27T10:33:22.317Z,5.42
2018-07-27T10:38:19.373Z,5.00
2018-07-27T10:43:16.105Z,4.75
2018-07-27T10:48:13.034Z,4.75
2018-07-27T10:53:09.883Z,4.92
2018-07-27T10:58:07.275Z,4.53
2018-07-27T11:03:04.311Z,4.58
2018-07-27T11:08:01.808Z,4.50
2018-07-27T11:12:59.010Z,4.60
2018-07-27T11:17:56.020Z,4.97
2018-07-27T11:22:53.455Z,4.45
2018-07-27T11:27:50.812Z,5.00
2018-07-27T11:32:48.615Z,4.55
2018-07-27T11:37:45.735Z,5.05
2018-07-27T11:42:42.564Z,5.33
2018-07-27T11:47:39.851Z,4.40
2018-07-27T11:52:36.684Z,4.22
2018-07-27T11:57:34.440Z,4.30
2018-07-27T12:02:31.193Z,4.37
2018-07-27T12:07:28.869Z,4.60
2018-07-27T12:12:25.563Z,5.20
2018-07-27T12:17:24.455Z,4.78
2018-07-27T12:22:21.339Z,4.55
2018-07-27T12:27:18.219Z,4.53
2018-07-27T12:32:15.037Z,4.70
2018-07-27T12:37:12.256Z,5.08
2018-07-27T12:42:09.339Z,5.10
2018-07-27T12:47:06.467Z,5.67
2018-07-27T12:52:03.159Z,14.80
2018-07-27T12:57:00.210Z,5.50
2018-07-27T13:01:57.159Z,5.20
2018-07-27T13:06:54.234Z,7.35
2018-07-27T13:11:50.975Z,25.35
2018-07-27T13:16:48.155Z,10.23
2018-07-27T13:21:44.907Z,8.50
2018-07-27T13:26:41.912Z,8.93
2018-07-27T13:31:43.371Z,8.58
2018-07-27T13:36:40.238Z,7.40
2018-07-27T13:41:37.314Z,5.97
2018-07-27T13:46:34.223Z,5.97
2018-07-27T13:51:31.299Z,4.70
2018-07-27T13:56:28.006Z,5.17
2018-07-27T14:01:25.027Z,5.12
2018-07-27T14:06:22.178Z,4.62
2018-07-27T14:11:19.179Z,4.40
2018-07-27T14:16:16.307Z,4.40
2018-07-27T14:21:13.035Z,4.08
2018-07-27T14:26:10.030Z,4.37
2018-07-27T14:31:06.822Z,4.00
2018-07-27T14:36:03.708Z,3.90
2018-07-27T14:41:01.012Z,3.37
2018-07-27T14:45:57.810Z,11.28
2018-07-27T14:50:54.621Z,6.78
2018-07-27T14:55:51.398Z,5.67
2018-07-27T15:00:48.542Z,5.50
2018-07-27T15:05:45.341Z,4.50
2018-07-27T15:10:42.269Z,10.35
2018-07-27T15:15:39.019Z,6.50
2018-07-27T15:20:36.025Z,5.80
2018-07-27T15:25:33.361Z,6.62
2018-07-27T15:30:30.117Z,5.42
2018-07-27T15:35:27.485Z,4.58
2018-07-27T15:40:24.658Z,5.33
2018-07-27T15:45:21.419Z,4.95
2018-07-27T15:50:18.480Z,5.05
2018-07-27T15:55:15.455Z,13.55
2018-07-27T16:00:12.248Z,4.50
2018-07-27T16:05:09.275Z,4.47
2018-07-27T16:10:06.012Z,4.37
2018-07-27T16:15:03.829Z,3.98
2018-07-27T16:20:02.400Z,3.95
2018-07-27T16:24:59.375Z,14.65
2018-07-27T16:29:56.085Z,7.33
2018-07-27T16:34:53.076Z,4.83
2018-07-27T16:39:49.977Z,4.80
2018-07-27T16:44:47.287Z,4.45
2018-07-27T16:49:44.214Z,4.10
2018-07-27T16:54:41.374Z,4.40
2018-07-27T16:59:38.144Z,4.05
2018-07-27T17:04:35.341Z,4.20
2018-07-27T17:09:32.080Z,3.87
2018-07-27T17:14:29.088Z,5.70
2018-07-27T17:19:26.059Z,5.03
2018-07-27T17:24:22.821Z,7.67
2018-07-27T17:29:19.598Z,4.05
2018-07-27T17:34:16.325Z,5.08
2018-07-27T17:39:13.275Z,5.58
2018-07-27T17:44:10.475Z,6.00
2018-07-27T17:49:08.438Z,7.80
2018-07-27T17:54:05.481Z,21.87
2018-07-27T17:59:02.458Z,6.58
2018-07-27T18:03:59.125Z,10.50
2018-07-27T18:08:56.067Z,5.78
2018-07-27T18:13:52.874Z,5.15
2018-07-27T18:18:49.830Z,4.90
2018-07-27T18:23:46.629Z,4.50
2018-07-27T18:28:44.166Z,4.15
2018-07-27T18:33:41.387Z,4.05
2018-07-27T18:38:38.372Z,4.10
2018-07-27T18:43:35.517Z,4.60
2018-07-27T18:48:32.299Z,5.00
2018-07-27T18:53:29.360Z,4.87
2018-07-27T18:58:26.101Z,5.03
2018-07-27T19:03:23.377Z,4.80
2018-07-27T19:08:20.093Z,5.42
2018-07-27T19:13:17.289Z,5.75
2018-07-27T19:18:13.969Z,5.35
2018-07-27T19:23:10.769Z,5.47
2018-07-27T19:28:07.799Z,5.28
2018-07-27T19:33:04.572Z,5.45
2018-07-27T19:38:01.928Z,5.80
2018-07-27T19:42:58.628Z,5.95
2018-07-27T19:47:55.522Z,6.58
2018-07-27T19:52:52.452Z,6.30
2018-07-27T19:57:49.345Z,6.20
2018-07-27T20:02:46.123Z,6.20
2018-07-27T20:07:43.048Z,6.40
2018-07-27T20:12:39.779Z,6.42
2018-07-27T20:17:36.816Z,6.00
2018-07-27T20:22:33.887Z,6.17
2018-07-27T20:27:30.903Z,6.78
2018-07-27T20:32:27.761Z,6.78
2018-07-27T20:37:25.158Z,6.60
2018-07-27T20:42:21.931Z,6.83
2018-07-27T20:47:19.182Z,7.10
2018-07-27T20:52:15.944Z,6.75
2018-07-27T20:57:12.902Z,7.53
2018-07-27T21:02:09.617Z,6.97
2018-07-27T21:07:06.527Z,6.45
2018-07-27T21:12:03.812Z,7.00
2018-07-27T21:17:00.978Z,6.80
2018-07-27T21:21:58.085Z,7.28
2018-07-27T21:26:54.963Z,7.50
2018-07-27T21:31:52.138Z,6.15
2018-07-27T21:36:48.917Z,6.70
2018-07-27T21:41:45.888Z,6.75
2018-07-27T21:46:42.729Z,7.05
2018-07-27T21:51:39.825Z,6.40
2018-07-27T21:56:36.545Z,7.05
2018-07-27T22:01:33.590Z,7.12
2018-07-27T22:06:30.498Z,6.55
2018-07-27T22:11:27.312Z,6.80
2018-07-27T22:16:24.290Z,7.30
2018-07-27T22:21:21.595Z,7.03
2018-07-27T22:26:18.991Z,6.35
2018-07-27T22:31:16.252Z,6.70
2018-07-27T22:36:12.945Z,7.05
2018-07-27T22:41:15.741Z,7.47
2018-07-27T22:46:12.531Z,7.40
2018-07-27T22:51:09.488Z,7.00
2018-07-27T22:56:06.302Z,7.30
2018-07-27T23:01:03.407Z,7.40
2018-07-27T23:06:00.216Z,8.30
2018-07-27T23:10:57.148Z,8.95
2018-07-27T23:15:53.923Z,8.80
2018-07-27T23:20:50.913Z,8.90
2018-07-27T23:25:47.916Z,8.97
2018-07-27T23:30:45.349Z,8.47
2018-07-27T23:35:42.349Z,8.95
2018-07-27T23:40:39.079Z,9.05
2018-07-27T23:45:36.020Z,8.83
2018-07-27T23:50:33.131Z,8.80
2018-07-27T23:55:29.913Z,8.85
